Tiempo atmosférico en la estación meteorológica de Bicorp, València/Valencia (299 m.)



Fecha
DESCASC
Temp. máxima en grados centígrados (hora)
DESCASC
Temp. mínima en grados centígrados (hora)
DESCASC
Temp. media en grados centígrados
DESCASC
Racha de viento máxima en m/sg (hora)
DESCASC
Velocidad máxima media en intervalos de 10 minutos(hora)
DESCASC
Precipitaciones diarias en mm
DESCASC
Precipitaciones de 00:00 a 06:00 en mm
DESCASC
Precipitaciones de 06:00 a 12:00 en mm
DESCASC
Precipitaciones de 12:00 a 18:00 en mm
DESCASC
Precipitaciones de 18:00 a 24:00 en mm
DESCASC
16-06-2019 25.7 (16:20) 12.5 (05:50) 19.1 6.39 (12:10) 3.06 (17:00) 0 0 0 0 0
15-06-2019 31.3 (16:50) 17.9 (07:10) 24.6 11.39 (01:40) 6.67 (01:40) 0 0 0 0 0
14-06-2019 32.4 (16:50) 14 (02:50) 23.2 11.39 (11:30) 5.28 (11:10) 0 0 0 0 0
13-06-2019 22.5 (17:00) 15 (00:00) 18.8 7.78 (15:20) 4.17 (15:20) 0 0 0 0 0
12-06-2019 23.6 (15:40) 9.1 (00:00) 16.4 8.33 (16:20) 4.72 (16:20) 0 0 0 0 0
11-06-2019 23.7 (13:00) 12.8 (00:00) 18.3 9.17 (16:50) 4.72 (16:40) 0 0 0 0 0
10-06-2019 28.9 (16:50) 13.9 (00:00) 21.4 7.22 (14:50) 4.17 (15:40) 0 0 0 0 0
09-06-2019 29.9 (17:50) 13 (00:00) 21.4 6.67 (18:00) 4.17 (18:00) 0 0 0 0 0
08-06-2019 21.5 (17:10) 13.9 (00:00) 17.7 9.72 (12:30) 5.83 (11:20) 0 0 0 0 0
07-06-2019 28.4 (17:00) 11.4 (00:00) 19.9 13.61 (13:10) 6.39 (13:10) 0 0 0 0 0
06-06-2019 25.8 (14:30) 10.1 (00:00) 17.9 8.33 (15:30) 5 (15:50) 0 0 0 0 0
05-06-2019 26.5 (17:20) 14.6 (00:00) 20.6 16.67 (10:10) 8.61 (09:30) 0 0 0 0 0
04-06-2019 31.4 (15:00) 13.4 (00:00) 22.4 6.67 (15:10) 3.89 (15:40) 0 0 0 0 0
03-06-2019 32.6 (15:40) 12.7 (00:00) 22.6 6.11 (14:20) 3.33 (15:10) 0 0 0 0 0
02-06-2019 30.9 (14:50) 11 (00:00) 20.9 6.39 (14:30) 3.61 (17:40) 0 0 0 0 0
01-06-2019 28.9 (16:20) 11.2 (00:00) 20 7.78 (16:00) 3.61 (15:20) 0 0 0 0 0
31-05-2019 28 (15:20) 11.3 (00:00) 19.7 7.5 (17:50) 4.44 (17:20) 0 0 0 0 0
30-05-2019 27.8 (17:00) 9.7 (00:00) 18.7 6.11 (17:20) 3.61 (17:40) 0 0 0 0 0
29-05-2019 25 (16:10) 10.7 (00:00) 17.8 7.5 (14:50) 4.44 (17:20) 0 0 0 0 0
28-05-2019 26.7 (17:00) 12.4 (00:00) 19.6 7.5 (18:10) 4.17 (17:40) 0 0 0 0 0
27-05-2019 29.1 (14:40) 10.9 (00:00) 20 8.06 (15:00) 4.17 (18:10) 0 0 0 0 0
26-05-2019 25.3 (14:10) 11.1 (00:00) 18.2 8.33 (14:40) 4.17 (14:40) 0 0 0 0 0
25-05-2019 22.4 (16:30) 13.3 (00:00) 17.8 8.06 (14:40) 4.17 (13:50) 0 0 0 0 0
24-05-2019 17.3 (11:50) 13.4 (00:00) 15.3 6.67 (16:10) 3.61 (14:50) 1.4 0 0 1.4 0
23-05-2019 29.8 (14:20) 11.3 (00:00) 20.5 6.67 (17:10) 3.89 (17:10) 0 0 0 0 0
22-05-2019 25.5 (15:20) 10.3 (00:00) 17.9 6.11 (16:00) 3.61 (16:50) 0 0 0 0 0

Gráficas

Temp. máximas Temp. mínimas Temp. medias Precipitaciones Rachas de viento máximas Velocidades máximas media en intervalos de 10 minutos

Datos horarios

Fecha y hora oficial Temperatura (ºC) Velocidad del viento (km/h) Dirección del viento Racha (km/h) Dirección de racha Precipitación (mm) Presión (hPa) Tendencia (hPa) Humedad (%)
2019-06-20 23:00:00 -- -- -- -- -- -- -- -- --
2019-06-20 22:00:00 -- -- -- -- -- -- -- -- --
2019-06-20 21:00:00 -- -- -- -- -- -- -- -- --
2019-06-20 20:00:00 23.6 6 Sudeste 19 Sudeste 0 -- -- 62
2019-06-20 19:00:00 24.8 11 Sudeste 20 Sudeste 0 -- -- 59
2019-06-20 18:00:00 26.3 13 Este 26 Este 0 -- -- 52
2019-06-20 17:00:00 27.5 15 Este 27 Este 0 -- -- 49
2019-06-20 16:00:00 28 15 Este 31 Este 0 -- -- 48
2019-06-20 15:00:00 27.7 15 Este 32 Nordeste 0 -- -- 50
2019-06-20 14:00:00 27.8 12 Nordeste 26 Este 0 -- -- 51
2019-06-20 13:00:00 27.3 14 Este 26 Este 0 -- -- 54
2019-06-20 12:00:00 26.2 10 Sudeste 18 Sudeste 0 -- -- 54
2019-06-20 11:00:00 25.2 7 Este 15 Este 0 -- -- 56
2019-06-20 10:00:00 23.6 7 Este 17 Nordeste 0 -- -- 64
2019-06-20 09:00:00 21.9 7 Nordeste 12 Este 0 -- -- 64
2019-06-20 08:00:00 19.2 0 Calma 4 Este 0 -- -- 62
2019-06-20 07:00:00 15.3 0 Calma 2 Nordeste 0 -- -- 78
2019-06-20 06:00:00 15.8 0 Calma 10 Oeste 0 -- -- 74
2019-06-20 05:00:00 16.1 2 Sudoeste 4 Sudoeste 0 -- -- 70
2019-06-20 04:00:00 17 0 Calma 8 Oeste 0 -- -- 67
2019-06-20 03:00:00 17.8 0 Calma 5 Sudoeste 0 -- -- 64
2019-06-20 02:00:00 20 0 Calma 9 Oeste 0 -- -- 56
2019-06-20 01:00:00 20.8 4 Sudoeste 8 Oeste 0 -- -- 54
2019-06-20 00:00:00 23.2 5 Oeste 12 Oeste 0 -- -- 47
2019-06-19 23:00:00 24.6 5 Sudoeste 13 Oeste 0 -- -- 44
2019-06-19 22:00:00 26.3 2 Sudoeste 8 Oeste 0 -- -- 41
2019-06-19 21:00:00 28.5 4 Nordeste 15 Nordeste 0 -- -- 36
2019-06-19 20:00:00 31.2 8 Este 21 Este 0 -- -- 32
2019-06-19 19:00:00 33 10 Nordeste 21 Nordeste 0 -- -- 29
2019-06-19 18:00:00 34.1 12 Este 27 Sudoeste 0 -- -- 28
2019-06-19 17:00:00 34.7 10 Sudoeste 26 Sur 0 -- -- 21
2019-06-19 16:00:00 35 6 Sudeste 27 Sudoeste 0 -- -- 20
2019-06-19 15:00:00 34.6 9 Sudoeste 30 Sudoeste 0 -- -- 21
2019-06-19 14:00:00 32.8 10 Sur 31 Oeste 0 -- -- 22
2019-06-19 13:00:00 31.9 5 Oeste 22 Norte 0 -- -- 28
2019-06-19 12:00:00 30.1 9 Oeste 30 Sudoeste 0 -- -- 32
2019-06-19 11:00:00 28.2 15 Sudoeste 30 Sudoeste 0 -- -- 35
2019-06-19 10:00:00 26.9 13 Sudoeste 27 Sudoeste 0 -- -- 37
2019-06-19 09:00:00 24.9 5 Sur 17 Sudoeste 0 -- -- 37
2019-06-19 08:00:00 20.4 3 Norte 10 Noroeste 0 -- -- 51
2019-06-19 07:00:00 16.7 3 Sudoeste 10 Nordeste 0 -- -- 61
2019-06-19 06:00:00 15.4 3 Nordeste 10 Noroeste 0 -- -- 82
2019-06-19 05:00:00 15.3 0 Calma 8 Norte 0 -- -- 82
2019-06-19 04:00:00 15.8 4 Noroeste 12 Oeste 0 -- -- 80
2019-06-19 03:00:00 16.8 4 Noroeste 12 Sudoeste 0 -- -- 80
2019-06-19 02:00:00 17.4 0 Calma 7 Oeste 0 -- -- 77
2019-06-19 01:00:00 18.5 4 Norte 6 Nordeste 0 -- -- 77
2019-06-19 00:00:00 19.8 0 Calma 7 Norte 0 -- -- 69
2019-06-18 23:00:00 22.1 2 Nordeste 9 Norte 0 -- -- 61
2019-06-18 22:00:00 24.4 5 Nordeste 12 Este 0 -- -- 48
2019-06-18 21:00:00 27.7 5 Este 14 Este 0 -- -- 39
2019-06-18 20:00:00 29.7 7 Este 17 Nordeste 0 -- -- 33
2019-06-18 19:00:00 30.8 13 Nordeste 21 Este 0 -- -- 29
2019-06-18 18:00:00 31.9 12 Este 24 Este 0 -- -- 27
2019-06-18 17:00:00 31.8 12 Nordeste 27 Nordeste 0 -- -- 31
2019-06-18 16:00:00 31.4 11 Este 23 Este 0 -- -- 33
2019-06-18 15:00:00 30.9 13 Nordeste 24 Este 0 -- -- 35
2019-06-18 14:00:00 31.1 11 Este 23 Este 0 -- -- 35
2019-06-18 13:00:00 30.5 11 Este 21 Este 0 -- -- 28
2019-06-18 12:00:00 28.9 9 Nordeste 16 Nordeste 0 -- -- 33
2019-06-18 11:00:00 27.5 6 Este 15 Nordeste 0 -- -- 31
2019-06-18 10:00:00 24.4 5 Nordeste 9 Este 0 -- -- 41
2019-06-18 09:00:00 21 3 Este 5 Sudeste 0 -- -- 53
2019-06-18 08:00:00 16.5 2 Este 4 Sudoeste 0 -- -- 66
2019-06-18 07:00:00 13.2 0 Calma 7 Oeste 0 -- -- 80
2019-06-18 06:00:00 13.9 3 Sudoeste 7 Oeste 0 -- -- 77
2019-06-18 05:00:00 14.6 3 Oeste 9 Oeste 0 -- -- 77
2019-06-18 04:00:00 15.3 4 Oeste 8 Sudoeste 0 -- -- 71
2019-06-18 03:00:00 15.5 3 Sudoeste 9 Oeste 0 -- -- 70
2019-06-18 02:00:00 17.1 4 Oeste 6 Oeste 0 -- -- 67
2019-06-18 01:00:00 17.8 0 Calma 5 Noroeste 0 -- -- 64
2019-06-18 00:00:00 18.9 0 Calma 6 Norte 0 -- -- 60
2019-06-17 23:00:00 20.7 0 Calma 12 Sudoeste 0 -- -- 47
2019-06-17 22:00:00 23.5 4 Oeste 8 Noroeste 0 -- -- 41
2019-06-17 21:00:00 26.3 4 Norte 11 Nordeste 0 -- -- 32
2019-06-17 20:00:00 28.7 8 Nordeste 16 Nordeste 0 -- -- 30
2019-06-17 19:00:00 30.1 10 Nordeste 19 Este 0 -- -- 29
2019-06-17 18:00:00 30.6 11 Nordeste 24 Este 0 -- -- 29
2019-06-17 17:00:00 31.1 16 Nordeste 28 Nordeste 0 -- -- 31
2019-06-17 16:00:00 32.2 14 Nordeste 27 Este 0 -- -- 30
2019-06-17 15:00:00 32.9 19 Este 34 Este 0 -- -- 27
2019-06-17 14:00:00 33 10 Este 22 Este 0 -- -- 22
2019-06-17 13:00:00 32.1 9 Este 21 Nordeste 0 -- -- 24
2019-06-17 12:00:00 30.1 5 Nordeste 15 Norte 0 -- -- 25
2019-06-17 11:00:00 27.5 4 Este 9 Este 0 -- -- 37
2019-06-17 10:00:00 24.4 3 Este 6 Este 0 -- -- 47
2019-06-17 09:00:00 20.7 0 Calma 5 Este 0 -- -- 60
2019-06-17 08:00:00 16 0 Calma 4 Sudoeste 0 -- -- 76
2019-06-17 07:00:00 12.3 0 Calma 3 Sudoeste 0 -- -- 90
2019-06-17 06:00:00 12.7 3 Norte 7 Oeste 0 -- -- 90
2019-06-17 05:00:00 13.4 2 Oeste 9 Oeste 0 -- -- 88
2019-06-17 04:00:00 14.1 2 Oeste 9 Oeste 0 -- -- 86
2019-06-17 03:00:00 15 4 Oeste 8 Oeste 0 -- -- 83
2019-06-17 02:00:00 15.9 5 Oeste 8 Oeste 0 -- -- 78
2019-06-17 01:00:00 16.3 0 Calma 9 Sudoeste 0 -- -- 75
2019-06-17 00:00:00 17.5 4 Oeste 10 Oeste 0 -- -- 71
2019-06-16 23:00:00 18.4 5 Oeste 8 Sudoeste 0 -- -- 68
2019-06-16 22:00:00 19.9 5 Oeste 8 Noroeste 0 -- -- 65
2019-06-16 21:00:00 21.6 2 Nordeste 10 Este 0 -- -- 60
2019-06-16 20:00:00 22.3 6 Este 13 Este 0 -- -- 57
2019-06-16 19:00:00 23 7 Sudeste 15 Este 0 -- -- 53
2019-06-16 18:00:00 23.8 8 Sudeste 20 Este 0 -- -- 51
2019-06-16 17:00:00 25 11 Este 20 Nordeste 0 -- -- 49
2019-06-16 16:00:00 25.1 8 Este 19 Nordeste 0 -- -- 49
2019-06-16 15:00:00 24.6 10 Sudeste 18 Este 0 -- -- 48
2019-06-16 14:00:00 24.4 10 Sudeste 20 Sudeste 0 -- -- 49
2019-06-16 13:00:00 23.6 10 Este 23 Este 0 -- -- 52
2019-06-16 12:00:00 23.4 10 Este 17 Este 0 -- -- 53
2019-06-16 11:00:00 21.9 9 Nordeste 18 Sur 0 -- -- 59
2019-06-16 10:00:00 21 7 Este 15 Nordeste 0 -- -- 62
2019-06-16 09:00:00 19.4 2 Este 4 Sudeste 0 -- -- 73
2019-06-16 08:00:00 15.9 3 Sudoeste 5 Sudoeste 0 -- -- 76
2019-06-16 07:00:00 13.9 2 Sudoeste 8 Sudoeste 0 -- -- 72
2019-06-16 06:00:00 13 2 Noroeste 5 Sudoeste 0 -- -- 71
2019-06-16 05:00:00 13.5 0 Calma 11 Sudoeste 0 -- -- 67
2019-06-16 04:00:00 13.9 5 Sudoeste 9 Oeste 0 -- -- 68
2019-06-16 03:00:00 14.7 2 Oeste 10 Oeste 0 -- -- 64
2019-06-16 02:00:00 16.1 6 Sudoeste 10 Oeste 0 -- -- 59
2019-06-16 01:00:00 17.8 6 Oeste 11 Oeste 0 -- -- 51
2019-06-16 00:00:00 18.3 2 Oeste 7 Oeste 0 -- -- 49
2019-06-15 23:00:00 20.5 6 Oeste 12 Oeste 0 -- -- 43
2019-06-15 22:00:00 22.1 4 Sudoeste 9 Norte 0 -- -- 40
2019-06-15 21:00:00 25.6 4 Este 15 Este 0 -- -- 34
2019-06-15 20:00:00 28.9 6 Sudoeste 21 Oeste 0 -- -- 22
2019-06-15 19:00:00 30.3 6 Noroeste 22 Sudoeste 0 -- -- 21
2019-06-15 18:00:00 30.7 12 Sudoeste 26 Sudoeste 0 -- -- 18
2019-06-15 17:00:00 31 15 Sudoeste 29 Sudoeste 0 -- -- 18
2019-06-15 16:00:00 30.3 11 Oeste 30 Sudoeste 0 -- -- 19
2019-06-15 15:00:00 29.5 14 Sudoeste 26 Sudoeste 0 -- -- 20
2019-06-15 14:00:00 28.2 10 Noroeste 32 Sudoeste 0 -- -- 24
2019-06-15 13:00:00 26.5 14 Sudoeste 33 Sudoeste 0 -- -- 27
2019-06-15 12:00:00 25.1 15 Sudoeste 41 Sudoeste 0 -- -- 30
2019-06-15 11:00:00 24 15 Sudoeste 28 Sudoeste 0 -- -- 31
2019-06-15 10:00:00 22.9 8 Noroeste 24 Oeste 0 -- -- 32
2019-06-15 09:00:00 21.3 9 Sur 21 Sur 0 -- -- 34
2019-06-15 08:00:00 19.1 9 Sudeste 23 Norte 0 -- -- 39
2019-06-15 07:00:00 18 9 Sur 36 Noroeste 0 -- -- 39
2019-06-15 06:00:00 18.7 15 Sudoeste 35 Sudoeste 0 -- -- 38
2019-06-15 05:00:00 19.8 13 Sudoeste 36 Noroeste 0 -- -- 35
2019-06-15 04:00:00 20.6 8 Sudoeste 30 Noroeste 0 -- -- 33
2019-06-15 03:00:00 21.2 10 Sudoeste 36 Sudoeste 0 -- -- 32
2019-06-15 02:00:00 22.3 13 Sudoeste 41 Sudoeste 0 -- -- 30
2019-06-15 01:00:00 23.6 18 Sudoeste 37 Sudoeste 0 -- -- 24
2019-06-15 00:00:00 24.7 14 Sudoeste 28 Sudoeste 0 -- -- 20
2019-06-14 23:00:00 25.6 13 Sudoeste 31 Sudoeste 0 -- -- 18
2019-06-14 22:00:00 26.3 7 Oeste 26 Sudoeste 0 -- -- 25
2019-06-14 21:00:00 28.4 3 Oeste 25 Sudoeste 0 -- -- 22
2019-06-14 20:00:00 30 6 Oeste 32 Oeste 0 -- -- 20
2019-06-14 19:00:00 32 9 Sudoeste 33 Sudoeste 0 -- -- 20
2019-06-14 18:00:00 32.3 13 Sudoeste 36 Sudoeste 0 -- -- 19
2019-06-14 17:00:00 32.3 19 Sudoeste 35 Sur 0 -- -- 19
2019-06-14 16:00:00 31.6 11 Sudoeste 31 Sudoeste 0 -- -- 22
2019-06-14 15:00:00 30.9 12 Sudoeste 35 Sudoeste 0 -- -- 24
2019-06-14 14:00:00 30.2 10 Oeste 30 Sudoeste 0 -- -- 26
2019-06-14 13:00:00 28.7 19 Sudoeste 36 Sudoeste 0 -- -- 24
2019-06-14 12:00:00 27.4 13 Sudoeste 41 Sudoeste 0 -- -- 27
2019-06-14 11:00:00 25.3 18 Sudoeste 36 Sudoeste 0 -- -- 38
2019-06-14 10:00:00 21.8 10 Oeste 22 Sudoeste 0 -- -- 51
2019-06-14 09:00:00 18.2 3 Sur 8 Nordeste 0 -- -- 59
2019-06-14 08:00:00 17.1 2 Sur 12 Sudoeste 0 -- -- 63
2019-06-14 07:00:00 14.8 3 Sudoeste 14 Noroeste 0 -- -- 67
2019-06-14 06:00:00 14.4 4 Sudoeste 10 Sur 0 -- -- 65
2019-06-14 05:00:00 14.2 3 Noroeste 8 Oeste 0 -- -- 65
2019-06-14 04:00:00 14.5 6 Norte 13 Sudoeste 0 -- -- 60
2019-06-14 03:00:00 14.2 6 Sudoeste 12 Oeste 0 -- -- 60
2019-06-14 02:00:00 14.2 4 Sudoeste 9 Sudoeste 0 -- -- 69
2019-06-14 01:00:00 14.6 2 Sudoeste 10 Oeste 0 -- -- 80
2019-06-14 00:00:00 15.1 5 Oeste 8 Oeste 0 -- -- 82
2019-06-13 23:00:00 15.7 0 Calma 4 Norte 0 -- -- 80
2019-06-13 22:00:00 16.8 3 Norte 12 Sudeste 0 -- -- 77
2019-06-13 21:00:00 18.6 7 Este 18 Este 0 -- -- 72
2019-06-13 20:00:00 20.3 10 Este 22 Este 0 -- -- 63
2019-06-13 19:00:00 21.6 11 Este 21 Este 0 -- -- 57
2019-06-13 18:00:00 22.1 10 Sudeste 22 Este 0 -- -- 56
2019-06-13 17:00:00 22.5 12 Este 26 Este 0 -- -- 54
2019-06-13 16:00:00 21.6 11 Este 28 Nordeste 0 -- -- 58
2019-06-13 15:00:00 20.9 12 Nordeste 23 Este 0 -- -- 65
2019-06-13 14:00:00 19.6 14 Nordeste 25 Nordeste 0 -- -- 73
2019-06-13 13:00:00 21 12 Este 22 Este 0 -- -- 68
2019-06-13 12:00:00 19.8 9 Este 16 Este 0 -- -- 73
2019-06-13 11:00:00 17.2 4 Sudoeste 15 Nordeste 0 -- -- 81
2019-06-13 10:00:00 17.3 6 Este 12 Este 0 -- -- 81
2019-06-13 09:00:00 17.1 0 Calma 5 Sudoeste 0 -- -- 81
2019-06-13 08:00:00 16.4 2 Sur 4 Sur 0 -- -- 84
2019-06-13 07:00:00 16.3 0 Calma 4 Este 0 -- -- 83
2019-06-13 06:00:00 16.2 3 Nordeste 5 Nordeste 0 -- -- 83
2019-06-13 05:00:00 16.3 3 Este 12 Nordeste 0 -- -- 83
2019-06-13 04:00:00 16.3 6 Nordeste 13 Este 0 -- -- 85
2019-06-13 03:00:00 16.7 8 Este 13 Este 0 -- -- 86
2019-06-13 02:00:00 16.9 3 Sudeste 6 Sudeste 0 -- -- 85
2019-06-13 01:00:00 16.9 4 Nordeste 12 Este 0 -- -- 83
2019-06-13 00:00:00 17.1 7 Nordeste 13 Este 0 -- -- 82
2019-06-12 23:00:00 17.1 8 Nordeste 15 Nordeste 0 -- -- 80
2019-06-12 22:00:00 17 6 Nordeste 19 Nordeste 0 -- -- 77
2019-06-12 21:00:00 17.6 10 Nordeste 20 Nordeste 0 -- -- 71
2019-06-12 20:00:00 19.2 13 Nordeste 24 Nordeste 0 -- -- 51
2019-06-12 19:00:00 20.6 14 Nordeste 26 Nordeste 0 -- -- 44
2019-06-12 18:00:00 21.4 16 Nordeste 30 Este 0 -- -- 45
2019-06-12 17:00:00 22.4 14 Este 30 Este 0 -- -- 47
2019-06-12 16:00:00 23.6 14 Este 29 Este 0 -- -- 44
2019-06-12 15:00:00 23.2 12 Este 24 Este 0 -- -- 44
2019-06-12 14:00:00 22.6 8 Nordeste 21 Este 0 -- -- 45
2019-06-12 13:00:00 21.6 8 Este 19 Este 0 -- -- 47
2019-06-12 12:00:00 20.4 9 Este 25 Sur 0 -- -- 46
2019-06-12 11:00:00 18.7 4 Este 14 Este 0 -- -- 59
2019-06-12 10:00:00 16.8 4 Este 10 Nordeste 0 -- -- 65
2019-06-12 09:00:00 15.8 2 Este 4 Sur 0 -- -- 70
2019-06-12 08:00:00 11.9 3 Sudoeste 8 Sudoeste 0 -- -- 83
2019-06-12 07:00:00 9.3 0 Calma 6 Sudoeste 0 -- -- 91
2019-06-12 06:00:00 9.2 4 Sudoeste 12 Sudoeste 0 -- -- 89
2019-06-12 05:00:00 9.8 5 Sudoeste 10 Oeste 0 -- -- 88
2019-06-12 04:00:00 10 5 Oeste 9 Sudoeste 0 -- -- 87
2019-06-12 03:00:00 10.5 3 Sudoeste 9 Oeste 0 -- -- 84
2019-06-12 02:00:00 11.2 4 Oeste 9 Sudoeste 0 -- -- 81
2019-06-12 01:00:00 12 6 Sudoeste 9 Sudoeste 0 -- -- 80
2019-06-12 00:00:00 12.8 6 Sudoeste 9 Oeste 0 -- -- 77
2019-06-11 23:00:00 14.7 4 Oeste 6 Noroeste 0 -- -- 71
2019-06-11 22:00:00 16 3 Sur 15 Este 0 -- -- 66
2019-06-11 21:00:00 16.8 5 Este 15 Este 0 -- -- 59
2019-06-11 20:00:00 17 7 Este 14 Nordeste 0 -- -- 59
2019-06-11 19:00:00 17.1 10 Nordeste 19 Este 0 -- -- 60
2019-06-11 18:00:00 17.5 9 Este 28 Sudeste 0 -- -- 60
2019-06-11 17:00:00 18.3 15 Nordeste 33 Nordeste 0 -- -- 60
2019-06-11 16:00:00 19.4 15 Nordeste 27 Nordeste 0 -- -- 58
2019-06-11 15:00:00 21.5 13 Este 29 Sudeste 0 -- -- 53
2019-06-11 14:00:00 21.5 14 Este 26 Este 0 -- -- 52
2019-06-11 13:00:00 23.7 12 Este 26 Este 0 -- -- 46
2019-06-11 12:00:00 23 13 Este 26 Este 0 -- -- 54
2019-06-11 11:00:00 22.4 9 Este 20 Este 0 -- -- 57
2019-06-11 10:00:00 21.3 8 Este 14 Este 0 -- -- 63
2019-06-11 09:00:00 18.7 2 Sudoeste 12 Sudoeste 0 -- -- 73
2019-06-11 08:00:00 15.8 6 Sudoeste 12 Sudoeste 0 -- -- 81
2019-06-11 07:00:00 15.3 6 Sudoeste 9 Oeste 0 -- -- 83
2019-06-11 06:00:00 16.4 3 Oeste 8 Oeste 0 -- -- 80
2019-06-11 05:00:00 16.9 4 Sudoeste 8 Sudoeste 0 -- -- 80
2019-06-11 04:00:00 16.6 3 Sudoeste 6 Oeste 0 -- -- 83
2019-06-11 03:00:00 16.3 2 Nordeste 8 Sudoeste 0 -- -- 82
2019-06-11 02:00:00 16.4 3 Sudoeste 10 Sudoeste 0 -- -- 84
2019-06-11 01:00:00 16 0 Calma 2 Oeste 0 -- -- 82
2019-06-11 00:00:00 17.2 0 Calma 2 Oeste 0 -- -- 79
2019-06-10 23:00:00 18.8 0 Calma 13 Este 0 -- -- 75
2019-06-10 22:00:00 20.4 6 Este 12 Este 0 -- -- 69
2019-06-10 21:00:00 22.5 4 Nordeste 16 Nordeste 0 -- -- 57
2019-06-10 20:00:00 24.9 12 Nordeste 19 Nordeste 0 -- -- 45
2019-06-10 19:00:00 27 13 Este 22 Este 0 -- -- 41
2019-06-10 18:00:00 28.1 10 Este 23 Este 0 -- -- 38
2019-06-10 17:00:00 28.6 10 Este 22 Este 0 -- -- 34
2019-06-10 16:00:00 28.6 12 Este 26 Nordeste 0 -- -- 34
2019-06-10 15:00:00 27.9 11 Este 26 Este 0 -- -- 32
2019-06-10 14:00:00 27.7 13 Sudeste 24 Este 0 -- -- 29
2019-06-10 13:00:00 27.8 10 Este 19 Este 0 -- -- 29
2019-06-10 12:00:00 26.5 8 Este 19 Este 0 -- -- 32
2019-06-10 11:00:00 25.2 8 Nordeste 15 Nordeste 0 -- -- 29
2019-06-10 10:00:00 24.7 5 Este 13 Noroeste 0 -- -- 29
2019-06-10 09:00:00 23.6 3 Este 6 Este 0 -- -- 31
2019-06-10 08:00:00 20.5 0 Calma 8 Sudoeste 0 -- -- 39
2019-06-10 07:00:00 19.3 4 Sudoeste 17 Oeste 0 -- -- 35
2019-06-10 06:00:00 20.7 5 Este 16 Oeste 0 -- -- 32
2019-06-10 05:00:00 20.4 4 Sudoeste 14 Sudoeste 0 -- -- 32
2019-06-10 04:00:00 14.6 3 Este 8 Este 0 -- -- 68
2019-06-10 03:00:00 14.1 2 Nordeste 6 Nordeste 0 -- -- 76
2019-06-10 02:00:00 14.7 0 Calma 5 Noroeste 0 -- -- 72
2019-06-10 01:00:00 16.8 4 Oeste 10 Oeste 0 -- -- 65
2019-06-10 00:00:00 18.1 5 Oeste 9 Sudoeste 0 -- -- 63
2019-06-09 23:00:00 18.8 2 Oeste 6 Este 0 -- -- 62
2019-06-09 22:00:00 20.7 3 Este 11 Este 0 -- -- 57
2019-06-09 21:00:00 23.6 5 Este 14 Este 0 -- -- 44
2019-06-09 20:00:00 26.5 6 Este 18 Este 0 -- -- 35
2019-06-09 19:00:00 27.8 6 Nordeste 23 Este 0 -- -- 34
2019-06-09 18:00:00 29.3 15 Este 24 Este 0 -- -- 32
2019-06-09 17:00:00 29 11 Sudoeste 22 Sudoeste 0 -- -- 27
2019-06-09 16:00:00 29.1 12 Sur 22 Sur 0 -- -- 27
2019-06-09 15:00:00 26.2 6 Sur 19 Sudoeste 0 -- -- 36
2019-06-09 14:00:00 24.9 10 Sudoeste 19 Sudoeste 0 -- -- 38
2019-06-09 13:00:00 24 4 Sudeste 10 Este 0 -- -- 37
2019-06-09 12:00:00 21.7 4 Nordeste 10 Este 0 -- -- 35
2019-06-09 11:00:00 21 2 Este 15 Este 0 -- -- 38
2019-06-09 10:00:00 19.1 6 Norte 12 Sur 0 -- -- 51
2019-06-09 09:00:00 15.2 6 Nordeste 9 Sudeste 0 -- -- 66
2019-06-09 08:00:00 14.8 3 Sudoeste 12 Oeste 0 -- -- 59
2019-06-09 07:00:00 13.8 5 Sudoeste 12 Oeste 0 -- -- 62
2019-06-09 06:00:00 13.6 2 Este 15 Sudoeste 0 -- -- 70
2019-06-09 05:00:00 13.3 3 Oeste 9 Sudoeste 0 -- -- 77
2019-06-09 04:00:00 13.1 2 Oeste 6 Sudoeste 0 -- -- 83
2019-06-09 03:00:00 13.5 2 Oeste 7 Oeste 0 -- -- 83
2019-06-09 02:00:00 14.1 4 Oeste 8 Sudoeste 0 -- -- 82
2019-06-09 01:00:00 14.6 5 Oeste 9 Oeste 0 -- -- 82
2019-06-09 00:00:00 15.1 4 Oeste 8 Oeste 0 -- -- 80
2019-06-08 23:00:00 15.9 3 Oeste 5 Nordeste 0 -- -- 78
2019-06-08 22:00:00 16.5 4 Norte 10 Este 0 -- -- 75
2019-06-08 21:00:00 18 7 Nordeste 17 Este 0 -- -- 69
2019-06-08 20:00:00 19.5 6 Este 17 Este 0 -- -- 63
2019-06-08 19:00:00 20.3 9 Nordeste 25 Este 0 -- -- 60
2019-06-08 18:00:00 21.4 12 Este 26 Nordeste 0 -- -- 56
2019-06-08 17:00:00 20.8 12 Este 28 Este 0 -- -- 58
2019-06-08 16:00:00 21.2 14 Este 26 Este 0 -- -- 58
2019-06-08 15:00:00 20.7 14 Nordeste 26 Nordeste 0 -- -- 61
2019-06-08 14:00:00 20.3 12 Nordeste 28 Nordeste 0 -- -- 63
2019-06-08 13:00:00 19.9 16 Nordeste 35 Nordeste 0 -- -- 64
2019-06-08 12:00:00 20 19 Nordeste 35 Este 0 -- -- 65
2019-06-08 11:00:00 19.8 18 Nordeste 32 Este 0 -- -- 67
2019-06-08 10:00:00 18.6 15 Nordeste 27 Este 0 -- -- 75
2019-06-08 09:00:00 18.3 12 Nordeste 26 Nordeste 0 -- -- 75
2019-06-08 08:00:00 17 9 Nordeste 19 Nordeste 0 -- -- 76
2019-06-08 07:00:00 14.9 2 Nordeste 6 Sudoeste 0 -- -- 78
2019-06-08 06:00:00 14.6 3 Sudoeste 7 Sudoeste 0 -- -- 81
2019-06-08 05:00:00 14.3 2 Sudoeste 9 Sudoeste 0 -- -- 72
2019-06-08 04:00:00 14.3 5 Sudoeste 9 Sudoeste 0 -- -- 71
2019-06-08 03:00:00 14.5 0 Calma 12 Sudoeste 0 -- -- 62
2019-06-08 02:00:00 16.2 6 Sudoeste 14 Oeste 0 -- -- 50
2019-06-08 01:00:00 16.5 2 Sudeste 6 Oeste 0 -- -- 50
2019-06-08 00:00:00 17.7 0 Calma 16 Este 0 -- -- 37
2019-06-07 23:00:00 19.8 10 Sudoeste 15 Oeste 0 -- -- 28
2019-06-07 22:00:00 22.9 5 Oeste 7 Noroeste 0 -- -- 24
2019-06-07 21:00:00 24.9 5 Noroeste 15 Norte 0 -- -- 23
2019-06-07 20:00:00 26.3 8 Noroeste 25 Norte 0 -- -- 19
2019-06-07 19:00:00 27.6 10 Oeste 25 Sudoeste 0 -- -- 21
2019-06-07 18:00:00 27.8 10 Noroeste 33 Oeste 0 -- -- 23
2019-06-07 17:00:00 28.4 7 Oeste 27 Sudoeste 0 -- -- 24
2019-06-07 16:00:00 27.6 14 Oeste 38 Sudoeste 0 -- -- 25
2019-06-07 15:00:00 26.9 12 Sudoeste 42 Sudoeste 0 -- -- 27
2019-06-07 14:00:00 25.9 17 Sudoeste 49 Sudoeste 0 -- -- 32
2019-06-07 13:00:00 25.3 18 Sudoeste 42 Sudoeste 0 -- -- 37
2019-06-07 12:00:00 24.8 12 Oeste 32 Sudoeste 0 -- -- 39
2019-06-07 11:00:00 24.3 12 Sudoeste 40 Sudoeste 0 -- -- 42
2019-06-07 10:00:00 22.1 22 Sudoeste 38 Sudoeste 0 -- -- 46
2019-06-07 09:00:00 20.6 17 Sudoeste 41 Sudoeste 0 -- -- 48
2019-06-07 08:00:00 14.4 3 Nordeste 7 Nordeste 0 -- -- 80
2019-06-07 07:00:00 11.5 0 Calma 9 Oeste 0 -- -- 90
2019-06-07 06:00:00 12.3 6 Sudoeste 10 Sudoeste 0 -- -- 91
2019-06-07 05:00:00 13.1 5 Oeste 9 Oeste 0 -- -- 88
2019-06-07 04:00:00 14.1 5 Oeste 12 Oeste 0 -- -- 87
2019-06-07 03:00:00 14.4 2 Sudoeste 8 Noroeste 0 -- -- 85
2019-06-07 02:00:00 14.8 5 Oeste 8 Oeste 0 -- -- 86
2019-06-07 01:00:00 15.3 6 Sudoeste 9 Oeste 0 -- -- 83
2019-06-07 00:00:00 16.1 4 Oeste 9 Oeste 0 -- -- 81
2019-06-06 23:00:00 17.5 2 Oeste 6 Nordeste 0 -- -- 78
2019-06-06 22:00:00 18.6 4 Nordeste 15 Nordeste 0 -- -- 76
2019-06-06 21:00:00 20.3 8 Nordeste 15 Nordeste 0 -- -- 66
2019-06-06 20:00:00 22 8 Nordeste 21 Nordeste 0 -- -- 61
2019-06-06 19:00:00 23 12 Nordeste 27 Nordeste 0 -- -- 61
2019-06-06 18:00:00 24 12 Este 24 Nordeste 0 -- -- 58
2019-06-06 17:00:00 24.2 12 Nordeste 29 Este 0 -- -- 55
2019-06-06 16:00:00 24.7 16 Nordeste 30 Este 0 -- -- 48
2019-06-06 15:00:00 25.2 16 Este 29 Este 0 -- -- 43
2019-06-06 14:00:00 25.4 11 Este 24 Este 0 -- -- 38
2019-06-06 13:00:00 24.6 10 Este 25 Este 0 -- -- 39
2019-06-06 12:00:00 24.3 9 Este 19 Este 0 -- -- 33
2019-06-06 11:00:00 22.8 6 Nordeste 13 Norte 0 -- -- 28
2019-06-06 10:00:00 21.9 3 Este 8 Este 0 -- -- 31
2019-06-06 09:00:00 19.2 3 Este 6 Este 0 -- -- 38
2019-06-06 08:00:00 14.1 2 Norte 6 Nordeste 0 -- -- 51
2019-06-06 07:00:00 10.2 0 Calma 5 Sudoeste 0 -- -- 58
2019-06-06 06:00:00 10.7 0 Calma 12 Oeste 0 -- -- 53
2019-06-06 05:00:00 12.1 3 Oeste 12 Oeste 0 -- -- 48
2019-06-06 04:00:00 12 3 Sudoeste 6 Sudoeste 0 -- -- 49
2019-06-06 03:00:00 14 4 Oeste 11 Sudoeste 0 -- -- 40
2019-06-06 02:00:00 14.9 4 Sudoeste 14 Sudoeste 0 -- -- 38
2019-06-06 01:00:00 15.9 9 Sudoeste 11 Sudoeste 0 -- -- 35
2019-06-06 00:00:00 16.8 5 Sudoeste 9 Sudoeste 0 -- -- 33
2019-06-05 23:00:00 18.8 0 Calma 10 Oeste 0 -- -- 31
2019-06-05 22:00:00 21.5 5 Oeste 15 Oeste 0 -- -- 26
2019-06-05 21:00:00 23.1 6 Sudoeste 17 Sudoeste 0 -- -- 22
2019-06-05 20:00:00 24 6 Oeste 27 Sudoeste 0 -- -- 21
2019-06-05 19:00:00 24.9 9 Oeste 26 Norte 0 -- -- 21
2019-06-05 18:00:00 26.1 14 Sudoeste 37 Sudoeste 0 -- -- 21
2019-06-05 17:00:00 26.3 17 Sudoeste 48 Oeste 0 -- -- 21
2019-06-05 16:00:00 26.2 14 Oeste 43 Sudoeste 0 -- -- 23
2019-06-05 15:00:00 24.5 25 Sudoeste 51 Sudoeste 0 -- -- 27
2019-06-05 14:00:00 24 16 Sudoeste 49 Sudoeste 0 -- -- 29
2019-06-05 13:00:00 23.4 19 Oeste 51 Oeste 0 -- -- 28
2019-06-05 12:00:00 23.2 18 Oeste 52 Sudoeste 0 -- -- 26
2019-06-05 11:00:00 22 25 Sudoeste 60 Sudoeste 0 -- -- 37
2019-06-05 10:00:00 22.1 25 Sudoeste 55 Sudoeste 0 -- -- 45
2019-06-05 09:00:00 21.5 23 Sudoeste 44 Oeste 0 -- -- 50
2019-06-05 08:00:00 17.5 4 Oeste 16 Noroeste 0 -- -- 78
2019-06-05 07:00:00 14.6 0 Calma 3 Sudoeste 0 -- -- 91
2019-06-05 06:00:00 15.2 0 Calma 6 Noroeste 0 -- -- 90
2019-06-05 05:00:00 16.1 2 Sudoeste 7 Oeste 0 -- -- 87
2019-06-05 04:00:00 17.4 5 Sudoeste 8 Sudoeste 0 -- -- 85
2019-06-05 03:00:00 18.5 4 Sudoeste 10 Sudoeste 0 -- -- 83
2019-06-05 02:00:00 18.9 3 Sudoeste 9 Sur 0 -- -- 83
2019-06-05 01:00:00 18.8 4 Sur 9 Sudeste 0 -- -- 85
2019-06-05 00:00:00 18.5 3 Norte 8 Nordeste 0 -- -- 86
2019-06-04 23:00:00 19.4 5 Nordeste 9 Nordeste 0 -- -- 81
2019-06-04 22:00:00 21.2 6 Nordeste 14 Este 0 -- -- 70
2019-06-04 21:00:00 24.4 7 Este 15 Este 0 -- -- 54
2019-06-04 20:00:00 27.2 6 Este 14 Este 0 -- -- 39
2019-06-04 19:00:00 29.1 8 Este 17 Sudeste 0 -- -- 34
2019-06-04 18:00:00 30 10 Este 20 Este 0 -- -- 38
2019-06-04 17:00:00 29.9 10 Sudeste 22 Este 0 -- -- 41
2019-06-04 16:00:00 30.4 12 Sudeste 24 Este 0 -- -- 39
2019-06-04 15:00:00 31.4 12 Este 22 Este 0 -- -- 38
2019-06-04 14:00:00 30.9 9 Este 21 Este 0 -- -- 36
2019-06-04 13:00:00 30.1 9 Este 18 Sudeste 0 -- -- 37
2019-06-04 12:00:00 28 5 Este 13 Este 0 -- -- 41
2019-06-04 11:00:00 25.5 3 Sur 9 Este 0 -- -- 45
2019-06-04 10:00:00 23.1 4 Este 10 Este 0 -- -- 48
2019-06-04 09:00:00 20.4 3 Nordeste 6 Sudoeste 0 -- -- 68
2019-06-04 08:00:00 15.9 3 Sudoeste 6 Sudoeste 0 -- -- 83
2019-06-04 07:00:00 13.4 2 Oeste 5 Sudoeste 0 -- -- 90
2019-06-04 06:00:00 13.5 0 Calma 5 Oeste 0 -- -- 88
2019-06-04 05:00:00 14.4 4 Oeste 11 Oeste 0 -- -- 88
2019-06-04 04:00:00 14.7 3 Oeste 7 Oeste 0 -- -- 87
2019-06-04 03:00:00 15.2 3 Sudoeste 8 Oeste 0 -- -- 84
2019-06-04 02:00:00 16 0 Calma 8 Sudoeste 0 -- -- 81
2019-06-04 01:00:00 17.1 4 Oeste 8 Oeste 0 -- -- 80
2019-06-04 00:00:00 18 3 Norte 7 Nordeste 0 -- -- 80
2019-06-03 23:00:00 19.1 5 Nordeste 9 Nordeste 0 -- -- 74
2019-06-03 22:00:00 21.2 6 Nordeste 17 Nordeste 0 -- -- 66
2019-06-03 21:00:00 24.8 6 Este 17 Este 0 -- -- 47
2019-06-03 20:00:00 26.9 7 Este 14 Este 0 -- -- 38
2019-06-03 19:00:00 28.6 9 Este 15 Este 0 -- -- 36
2019-06-03 18:00:00 29.1 10 Este 19 Este 0 -- -- 35
2019-06-03 17:00:00 31.1 11 Este 19 Este 0 -- -- 33
2019-06-03 16:00:00 32.6 11 Este 19 Este 0 -- -- 31
2019-06-03 15:00:00 31.9 10 Nordeste 22 Nordeste 0 -- -- 30
2019-06-03 14:00:00 31.3 9 Este 19 Nordeste 0 -- -- 27
2019-06-03 13:00:00 29.5 10 Este 18 Nordeste 0 -- -- 28
2019-06-03 12:00:00 27.8 6 Este 15 Nordeste 0 -- -- 32
2019-06-03 11:00:00 25.6 4 Nordeste 11 Este 0 -- -- 36
2019-06-03 10:00:00 23.2 3 Nordeste 8 Sudeste 0 -- -- 37
2019-06-03 09:00:00 20.2 0 Calma 5 Este 0 -- -- 48
2019-06-03 08:00:00 15.1 0 Calma 8 Sudoeste 0 -- -- 59
2019-06-03 07:00:00 13.2 4 Sudoeste 12 Oeste 0 -- -- 65
2019-06-03 06:00:00 12.8 4 Sudoeste 10 Sudoeste 0 -- -- 63
2019-06-03 05:00:00 12.8 0 Calma 7 Oeste 0 -- -- 61
2019-06-03 04:00:00 13.5 5 Sudoeste 10 Sudoeste 0 -- -- 58
2019-06-03 03:00:00 14.6 4 Oeste 8 Oeste 0 -- -- 54
2019-06-03 02:00:00 15 5 Sudoeste 8 Oeste 0 -- -- 51
2019-06-03 01:00:00 16.7 4 Sudoeste 11 Oeste 0 -- -- 44
2019-06-03 00:00:00 17.7 6 Oeste 9 Sudoeste 0 -- -- 40
2019-06-02 23:00:00 19.4 5 Sudoeste 13 Oeste 0 -- -- 40
2019-06-02 22:00:00 21 6 Oeste 10 Oeste 0 -- -- 39
2019-06-02 21:00:00 23.4 5 Norte 13 Este 0 -- -- 33
2019-06-02 20:00:00 25.7 10 Nordeste 18 Nordeste 0 -- -- 30
2019-06-02 19:00:00 28.1 10 Nordeste 21 Este 0 -- -- 29
2019-06-02 18:00:00 29.2 13 Nordeste 23 Este 0 -- -- 28
2019-06-02 17:00:00 30.1 12 Este 23 Este 0 -- -- 26
2019-06-02 16:00:00 30.8 12 Este 22 Sudeste 0 -- -- 25
2019-06-02 15:00:00 30.8 11 Este 23 Sudeste 0 -- -- 24
2019-06-02 14:00:00 30.5 9 Este 20 Este 0 -- -- 21
2019-06-02 13:00:00 29.5 7 Sudeste 15 Este 0 -- -- 24
2019-06-02 12:00:00 27.2 6 Nordeste 14 Este 0 -- -- 26
2019-06-02 11:00:00 25.8 7 Este 13 Este 0 -- -- 29
2019-06-02 10:00:00 23.4 4 Nordeste 8 Este 0 -- -- 28
2019-06-02 09:00:00 20.1 3 Este 5 Sudeste 0 -- -- 37
2019-06-02 08:00:00 15.4 0 Calma 6 Sudoeste 0 -- -- 47
2019-06-02 07:00:00 11.3 3 Sudoeste 7 Sudoeste 0 -- -- 52
2019-06-02 06:00:00 11.8 4 Oeste 6 Oeste 0 -- -- 53
2019-06-02 05:00:00 12 2 Oeste 6 Oeste 0 -- -- 52
2019-06-02 04:00:00 13 2 Oeste 9 Sudoeste 0 -- -- 50
2019-06-02 03:00:00 13.3 6 Sudoeste 8 Sudoeste 0 -- -- 50
2019-06-02 02:00:00 14 2 Oeste 9 Oeste 0 -- -- 52
2019-06-02 01:00:00 15 4 Sudoeste 10 Sudoeste 0 -- -- 49
2019-06-02 00:00:00 16 5 Sudoeste 11 Sudoeste 0 -- -- 47
2019-06-01 23:00:00 17.7 5 Sudoeste 11 Oeste 0 -- -- 42
2019-06-01 22:00:00 19 0 Calma 11 Norte 0 -- -- 39
2019-06-01 21:00:00 21.9 6 Nordeste 17 Este 0 -- -- 30
2019-06-01 20:00:00 24.3 10 Nordeste 21 Este 0 -- -- 28
2019-06-01 19:00:00 26.5 13 Nordeste 24 Nordeste 0 -- -- 27
2019-06-01 18:00:00 28.3 10 Este 21 Este 0 -- -- 28
2019-06-01 17:00:00 28.2 8 Sudeste 21 Este 0 -- -- 28
2019-06-01 16:00:00 28.4 13 Este 28 Sudeste 0 -- -- 28
2019-06-01 15:00:00 28.5 9 Este 22 Este 0 -- -- 28
2019-06-01 14:00:00 27.8 9 Sudeste 19 Sudeste 0 -- -- 26
2019-06-01 13:00:00 27.3 8 Sudeste 19 Sudeste 0 -- -- 29
2019-06-01 12:00:00 26 8 Este 15 Este 0 -- -- 31
2019-06-01 11:00:00 24.4 4 Este 12 Este 0 -- -- 39
2019-06-01 10:00:00 21.4 4 Nordeste 9 Nordeste 0 -- -- 47
2019-06-01 09:00:00 18.4 3 Este 9 Sudoeste 0 -- -- 56
2019-06-01 08:00:00 14.1 4 Sudoeste 9 Sur 0 -- -- 69
2019-06-01 07:00:00 11.2 3 Sudoeste 6 Sudoeste 0 -- -- 78
2019-06-01 06:00:00 11.4 3 Sudoeste 8 Sudoeste 0 -- -- 78
2019-06-01 05:00:00 12 5 Sudoeste 10 Sudoeste 0 -- -- 76
2019-06-01 04:00:00 12.6 4 Sudoeste 8 Sudoeste 0 -- -- 74
2019-06-01 03:00:00 13.4 2 Sudoeste 9 Oeste 0 -- -- 70
2019-06-01 02:00:00 14 5 Sudoeste 9 Sudoeste 0 -- -- 67
2019-06-01 01:00:00 14.9 4 Sudoeste 11 Sudoeste 0 -- -- 64
2019-06-01 00:00:00 16.2 6 Oeste 9 Sudoeste 0 -- -- 58
2019-05-31 23:00:00 17.1 0 Calma 4 Oeste 0 -- -- 57
2019-05-31 22:00:00 19.4 0 Calma 16 Nordeste 0 -- -- 49
2019-05-31 21:00:00 21.3 8 Nordeste 18 Nordeste 0 -- -- 42
2019-05-31 20:00:00 23.2 12 Nordeste 22 Nordeste 0 -- -- 37
2019-05-31 19:00:00 25.3 12 Nordeste 22 Este 0 -- -- 35
2019-05-31 18:00:00 26.9 12 Este 27 Nordeste 0 -- -- 35
2019-05-31 17:00:00 27.4 13 Nordeste 22 Este 0 -- -- 36
2019-05-31 16:00:00 27.6 10 Nordeste 24 Este 0 -- -- 35
2019-05-31 15:00:00 27.7 10 Este 23 Nordeste 0 -- -- 34
2019-05-31 14:00:00 27.5 6 Este 19 Sudeste 0 -- -- 31
2019-05-31 13:00:00 26.5 8 Este 20 Este 0 -- -- 32
2019-05-31 12:00:00 25.8 7 Este 18 Este 0 -- -- 33
2019-05-31 11:00:00 24.3 4 Nordeste 12 Este 0 -- -- 35
2019-05-31 10:00:00 22.1 5 Nordeste 9 Este 0 -- -- 36
2019-05-31 09:00:00 19.2 3 Nordeste 6 Sudoeste 0 -- -- 52
2019-05-31 08:00:00 14.3 4 Sudoeste 9 Sudoeste 0 -- -- 62
2019-05-31 07:00:00 11.3 3 Sudoeste 9 Sudoeste 0 -- -- 70
2019-05-31 06:00:00 11.6 5 Sudoeste 10 Sudoeste 0 -- -- 67
2019-05-31 05:00:00 11.9 5 Sudoeste 8 Sudoeste 0 -- -- 66
2019-05-31 04:00:00 12.8 5 Sudoeste 15 Sudoeste 0 -- -- 63
2019-05-31 03:00:00 13.6 7 Sudoeste 10 Sudoeste 0 -- -- 62
2019-05-31 02:00:00 13.9 4 Sudoeste 9 Oeste 0 -- -- 62
2019-05-31 01:00:00 15.1 7 Sudoeste 12 Sudoeste 0 -- -- 61
2019-05-31 00:00:00 15.7 8 Oeste 12 Sudoeste 0 -- -- 61
2019-05-30 23:00:00 16.9 4 Oeste 8 Oeste 0 -- -- 58
2019-05-30 22:00:00 19.4 0 Calma 13 Nordeste 0 -- -- 51
2019-05-30 21:00:00 21.5 9 Este 17 Nordeste 0 -- -- 44
2019-05-30 20:00:00 24 9 Este 21 Este 0 -- -- 38
2019-05-30 19:00:00 25.5 11 Este 21 Nordeste 0 -- -- 37
2019-05-30 18:00:00 26.8 11 Este 22 Este 0 -- -- 34
2019-05-30 17:00:00 27.8 10 Este 21 Este 0 -- -- 29
2019-05-30 16:00:00 27.5 8 Este 19 Este 0 -- -- 26
2019-05-30 15:00:00 27 7 Sudeste 16 Este 0 -- -- 27
2019-05-30 14:00:00 25.6 9 Sur 19 Sudeste 0 -- -- 31
2019-05-30 13:00:00 25.3 6 Este 21 Este 0 -- -- 34
2019-05-30 12:00:00 23.3 5 Nordeste 15 Este 0 -- -- 35
2019-05-30 11:00:00 22.3 5 Este 12 Nordeste 0 -- -- 36
2019-05-30 10:00:00 20.6 4 Este 10 Este 0 -- -- 38
2019-05-30 09:00:00 17.3 3 Sudeste 6 Este 0 -- -- 52
2019-05-30 08:00:00 12.8 5 Sudoeste 10 Sudoeste 0 -- -- 63
2019-05-30 07:00:00 9.8 4 Sudoeste 6 Sudoeste 0 -- -- 70
2019-05-30 06:00:00 10.3 3 Oeste 10 Sudoeste 0 -- -- 70
2019-05-30 05:00:00 10.1 4 Sudoeste 7 Oeste 0 -- -- 69
2019-05-30 04:00:00 10.7 3 Sudoeste 6 Oeste 0 -- -- 66
2019-05-30 03:00:00 11.1 2 Sudoeste 7 Oeste 0 -- -- 66
2019-05-30 02:00:00 12.1 3 Oeste 7 Oeste 0 -- -- 62
2019-05-30 01:00:00 12.9 4 Sudoeste 10 Oeste 0 -- -- 61
2019-05-30 00:00:00 13.2 5 Sudoeste 10 Sudoeste 0 -- -- 60
2019-05-29 23:00:00 14.3 3 Sudoeste 6 Sudoeste 0 -- -- 57
2019-05-29 22:00:00 16.4 0 Calma 10 Norte 0 -- -- 51
2019-05-29 21:00:00 18.9 7 Norte 18 Nordeste 0 -- -- 41
2019-05-29 20:00:00 20.9 11 Nordeste 23 Este 0 -- -- 35
2019-05-29 19:00:00 22.8 10 Este 23 Nordeste 0 -- -- 33
2019-05-29 18:00:00 23.7 13 Este 27 Este 0 -- -- 33
2019-05-29 17:00:00 24.4 14 Este 27 Este 0 -- -- 32
2019-05-29 16:00:00 24.4 6 Este 19 Este 0 -- -- 33
2019-05-29 15:00:00 23.7 12 Este 27 Este 0 -- -- 34
2019-05-29 14:00:00 22.6 8 Este 23 Nordeste 0 -- -- 34
2019-05-29 13:00:00 21.9 7 Nordeste 21 Este 0 -- -- 35
2019-05-29 12:00:00 21.4 9 Este 18 Este 0 -- -- 35
2019-05-29 11:00:00 20.1 6 Este 13 Sudeste 0 -- -- 45
2019-05-29 10:00:00 18.8 7 Este 16 Este 0 -- -- 48
2019-05-29 09:00:00 17.5 3 Este 6 Nordeste 0 -- -- 50
2019-05-29 08:00:00 13.8 2 Sudoeste 4 Nordeste 0 -- -- 69
2019-05-29 07:00:00 11.2 0 Calma 12 Oeste 0 -- -- 77
2019-05-29 06:00:00 11.2 0 Calma 9 Oeste 0 -- -- 79
2019-05-29 05:00:00 12.1 6 Oeste 10 Oeste 0 -- -- 76
2019-05-29 04:00:00 11.6 2 Oeste 8 Oeste 0 -- -- 82
2019-05-29 03:00:00 12.3 3 Sudoeste 6 Oeste 0 -- -- 81
2019-05-29 02:00:00 13 4 Sudoeste 8 Oeste 0 -- -- 78
2019-05-29 01:00:00 13.5 4 Sudoeste 9 Oeste 0 -- -- 76
2019-05-29 00:00:00 14.5 6 Oeste 9 Oeste 0 -- -- 72
2019-05-28 23:00:00 15.1 0 Calma 4 Sudoeste 0 -- -- 72
2019-05-28 22:00:00 16.7 0 Calma 3 Nordeste 0 -- -- 66
2019-05-28 21:00:00 18.8 0 Calma 14 Nordeste 0 -- -- 59
2019-05-28 20:00:00 20.4 9 Nordeste 18 Este 0 -- -- 54
2019-05-28 19:00:00 22.1 13 Nordeste 27 Este 0 -- -- 52
2019-05-28 18:00:00 24.6 15 Nordeste 24 Nordeste 0 -- -- 44
2019-05-28 17:00:00 26.7 12 Este 24 Este 0 -- -- 42
2019-05-28 16:00:00 26.2 11 Este 23 Este 0 -- -- 42
2019-05-28 15:00:00 25.8 13 Este 26 Este 0 -- -- 44
2019-05-28 14:00:00 25.7 8 Este 23 Este 0 -- -- 47
2019-05-28 13:00:00 25 9 Este 18 Sudeste 0 -- -- 46
2019-05-28 12:00:00 23.4 8 Nordeste 16 Nordeste 0 -- -- 48
2019-05-28 11:00:00 23.2 3 Sudeste 15 Este 0 -- -- 50
2019-05-28 10:00:00 21.8 7 Este 13 Este 0 -- -- 52
2019-05-28 09:00:00 19.9 0 Calma 4 Este 0 -- -- 57
2019-05-28 08:00:00 15.4 0 Calma 8 Sudoeste 0 -- -- 69
2019-05-28 07:00:00 12.7 4 Sudoeste 6 Sudoeste 0 -- -- 77
2019-05-28 06:00:00 12.9 6 Sudoeste 10 Sudoeste 0 -- -- 74
2019-05-28 05:00:00 13.2 4 Sudoeste 10 Sudoeste 0 -- -- 74
2019-05-28 04:00:00 13.4 2 Oeste 6 Sudoeste 0 -- -- 73
2019-05-28 03:00:00 13.9 3 Sudoeste 10 Sudoeste 0 -- -- 72
2019-05-28 02:00:00 14.6 4 Oeste 9 Sudoeste 0 -- -- 69
2019-05-28 01:00:00 15.3 0 Calma 8 Oeste 0 -- -- 69
2019-05-28 00:00:00 16.1 4 Sudoeste 10 Oeste 0 -- -- 68
2019-05-27 23:00:00 17 5 Sudoeste 9 Sudoeste 0 -- -- 65
2019-05-27 22:00:00 18.7 0 Calma 6 Nordeste 0 -- -- 61
2019-05-27 21:00:00 20.9 5 Norte 13 Este 0 -- -- 52
2019-05-27 20:00:00 22.7 8 Nordeste 20 Nordeste 0 -- -- 48
2019-05-27 19:00:00 23.9 12 Nordeste 25 Este 0 -- -- 45
2019-05-27 18:00:00 26.5 14 Nordeste 24 Nordeste 0 -- -- 43
2019-05-27 17:00:00 27.6 10 Este 20 Este 0 -- -- 38
2019-05-27 16:00:00 27.7 10 Este 25 Este 0 -- -- 39
2019-05-27 15:00:00 28.5 14 Este 29 Este 0 -- -- 38
2019-05-27 14:00:00 28.5 8 Sudeste 17 Este 0 -- -- 31
2019-05-27 13:00:00 27.5 6 Sudoeste 18 Sur 0 -- -- 32
2019-05-27 12:00:00 26.3 5 Este 21 Norte 0 -- -- 34
2019-05-27 11:00:00 24.7 5 Noroeste 26 Norte 0 -- -- 39
2019-05-27 10:00:00 23 6 Sur 24 Este 0 -- -- 45
2019-05-27 09:00:00 19.9 5 Este 14 Sudoeste 0 -- -- 60
2019-05-27 08:00:00 15.1 4 Nordeste 9 Nordeste 0 -- -- 74
2019-05-27 07:00:00 11.3 0 Calma 8 Norte 0 -- -- 85
2019-05-27 06:00:00 11.2 0 Calma 5 Norte 0 -- -- 84
2019-05-27 05:00:00 12.1 0 Calma 8 Oeste 0 -- -- 80
2019-05-27 04:00:00 12.2 2 Oeste 6 Oeste 0 -- -- 79
2019-05-27 03:00:00 12.8 4 Oeste 10 Oeste 0 -- -- 76
2019-05-27 02:00:00 13.2 3 Sudoeste 8 Oeste 0 -- -- 75
2019-05-27 01:00:00 14.4 3 Oeste 9 Oeste 0 -- -- 70
2019-05-27 00:00:00 15.5 5 Sudoeste 11 Sudoeste 0 -- -- 66
2019-05-26 23:00:00 16.2 8 Oeste 13 Sudoeste 0 -- -- 62
2019-05-26 22:00:00 17.1 0 Calma 6 Norte 0 -- -- 63
2019-05-26 21:00:00 19.7 6 Norte 19 Nordeste 0 -- -- 50
2019-05-26 20:00:00 21.5 11 Nordeste 18 Nordeste 0 -- -- 46
2019-05-26 19:00:00 23.3 10 Este 19 Este 0 -- -- 46
2019-05-26 18:00:00 24.2 9 Nordeste 23 Este 0 -- -- 44
2019-05-26 17:00:00 24.5 12 Este 26 Sudeste 0 -- -- 45
2019-05-26 16:00:00 24.6 12 Este 26 Este 0 -- -- 46
2019-05-26 15:00:00 24.9 14 Este 30 Nordeste 0 -- -- 44
2019-05-26 14:00:00 25.2 12 Este 24 Este 0 -- -- 42
2019-05-26 13:00:00 24.2 10 Nordeste 19 Este 0 -- -- 42
2019-05-26 12:00:00 24.2 11 Sudeste 20 Sudoeste 0 -- -- 43
2019-05-26 11:00:00 22.3 5 Norte 17 Sudoeste 0 -- -- 44
2019-05-26 10:00:00 21.5 5 Sudeste 12 Sudoeste 0 -- -- 47
2019-05-26 09:00:00 18.3 3 Sur 9 Sur 0 -- -- 56
2019-05-26 08:00:00 14.5 3 Nordeste 4 Nordeste 0 -- -- 79
2019-05-26 07:00:00 11.1 0 Calma 5 Oeste 0 -- -- 88
2019-05-26 06:00:00 11.5 0 Calma 4 Oeste 0 -- -- 86
2019-05-26 05:00:00 11.9 0 Calma 5 Sudoeste 0 -- -- 85
2019-05-26 04:00:00 12.2 3 Oeste 10 Sudoeste 0 -- -- 83
2019-05-26 03:00:00 12.6 5 Sudoeste 13 Oeste 0 -- -- 81
2019-05-26 02:00:00 13.2 4 Oeste 13 Oeste 0 -- -- 79
2019-05-26 01:00:00 13.7 5 Oeste 9 Sudoeste 0 -- -- 77
2019-05-26 00:00:00 14.3 8 Sudoeste 11 Oeste 0 -- -- 75
2019-05-25 23:00:00 15 3 Sudoeste 10 Sudoeste 0 -- -- 73
2019-05-25 22:00:00 17 0 Calma 7 Sudeste 0 -- -- 68
2019-05-25 21:00:00 19.1 4 Este 14 Este 0 -- -- 57
2019-05-25 20:00:00 20.9 4 Sudeste 17 Este 0 -- -- 52
2019-05-25 19:00:00 22.1 7 Sudeste 19 Este 0 -- -- 48
2019-05-25 18:00:00 22.3 7 Este 21 Este 0 -- -- 47
2019-05-25 17:00:00 22.2 11 Este 24 Nordeste 0 -- -- 48
2019-05-25 16:00:00 22 10 Este 24 Nordeste 0 -- -- 52
2019-05-25 15:00:00 22 14 Nordeste 29 Nordeste 0 -- -- 50
2019-05-25 14:00:00 21 9 Nordeste 24 Este 0 -- -- 59
2019-05-25 13:00:00 20.5 9 Este 21 Este 0 -- -- 59
2019-05-25 12:00:00 19.3 11 Este 24 Este 0 -- -- 63
2019-05-25 11:00:00 18.2 6 Este 13 Este 0 -- -- 67
2019-05-25 10:00:00 16.5 3 Este 5 Sudeste 0 -- -- 69
2019-05-25 09:00:00 14.9 0 Calma 3 Sudeste 0 -- -- 76
2019-05-25 08:00:00 13.8 3 Sudoeste 6 Sudoeste 0 -- -- 82
2019-05-25 07:00:00 13.4 0 Calma 4 Noroeste 0 -- -- 84
2019-05-25 06:00:00 13.5 0 Calma 4 Sudoeste 0 -- -- 83
2019-05-25 05:00:00 13.6 0 Calma 5 Este 0 -- -- 89
2019-05-25 04:00:00 13.6 2 Sudoeste 10 Sudoeste 0 -- -- 89
2019-05-25 03:00:00 14 5 Sudoeste 9 Sudoeste 0 -- -- 83
2019-05-25 02:00:00 13.7 4 Sudoeste 9 Oeste 0 -- -- 86
2019-05-25 01:00:00 13.4 2 Oeste 6 Sudoeste 0 -- -- 87
2019-05-25 00:00:00 13.4 5 Oeste 8 Oeste 0 -- -- 84
2019-05-24 23:00:00 13.6 5 Sudoeste 9 Oeste 0 -- -- 88
2019-05-24 22:00:00 14.6 0 Calma 5 Oeste 0 -- -- 86
2019-05-24 21:00:00 16 0 Calma 5 Sudoeste 0 -- -- 80
2019-05-24 20:00:00 16.2 0 Calma 5 Sudoeste 0 -- -- 77
2019-05-24 19:00:00 16 3 Sudoeste 6 Sudoeste 0 -- -- 79
2019-05-24 18:00:00 15.4 4 Este 15 Este 0 -- -- 84
2019-05-24 17:00:00 15.5 11 Nordeste 24 Nordeste 0 -- -- 84
2019-05-24 16:00:00 16.1 12 Nordeste 22 Norte 0 -- -- 86
2019-05-24 15:00:00 16.2 12 Norte 22 Nordeste 1.2 -- -- 88
2019-05-24 14:00:00 16.4 8 Nordeste 14 Este 0.2 -- -- 90
2019-05-24 13:00:00 16.8 8 Nordeste 18 Este 0 -- -- 85
2019-05-24 12:00:00 17 11 Nordeste 20 Norte 0 -- -- 82
2019-05-24 11:00:00 16.6 9 Nordeste 15 Este 0 -- -- 85
2019-05-24 10:00:00 16.8 3 Este 6 Nordeste 0 -- -- 85
2019-05-24 09:00:00 16.3 0 Calma 9 Sudoeste 0 -- -- 86
2019-05-24 08:00:00 15.5 3 Sudoeste 8 Oeste 0 -- -- 87
2019-05-24 07:00:00 15.3 6 Oeste 10 Oeste 0 -- -- 85
2019-05-24 06:00:00 15 4 Sudoeste 9 Norte 0 -- -- 87
2019-05-24 05:00:00 15.4 4 Oeste 6 Oeste 0 -- -- 84
2019-05-24 04:00:00 15.9 3 Sudoeste 5 Sudoeste 0 -- -- 85
2019-05-24 03:00:00 16.3 0 Calma 8 Sudoeste 0 -- -- 84
2019-05-24 02:00:00 16.6 4 Sudoeste 6 Oeste 0 -- -- 77
2019-05-24 01:00:00 16.3 2 Oeste 6 Noroeste 0 -- -- 79
2019-05-24 00:00:00 16.8 0 Calma 3 Norte 0 -- -- 75
2019-05-23 23:00:00 18.4 0 Calma 6 Nordeste 0 -- -- 68
2019-05-23 22:00:00 20.5 5 Nordeste 13 Este 0 -- -- 62
2019-05-23 21:00:00 23 6 Este 15 Este 0 -- -- 50
2019-05-23 20:00:00 25.1 8 Este 15 Este 0 -- -- 44
2019-05-23 19:00:00 26.5 6 Este 16 Este 0 -- -- 45
2019-05-23 18:00:00 28.1 8 Este 24 Nordeste 0 -- -- 41
2019-05-23 17:00:00 29.1 10 Nordeste 19 Sudeste 0 -- -- 39
2019-05-23 16:00:00 29.4 6 Este 18 Nordeste 0 -- -- 32
2019-05-23 15:00:00 29.3 8 Este 18 Este 0 -- -- 33
2019-05-23 14:00:00 29.2 6 Sudeste 14 Este 0 -- -- 32
2019-05-23 13:00:00 28.5 4 Este 13 Sudoeste 0 -- -- 35
2019-05-23 12:00:00 26.1 4 Este 9 Nordeste 0 -- -- 41
2019-05-23 11:00:00 23.3 6 Nordeste 10 Nordeste 0 -- -- 49
2019-05-23 10:00:00 21.6 4 Nordeste 8 Este 0 -- -- 54
2019-05-23 09:00:00 18 0 Calma 4 Este 0 -- -- 70
2019-05-23 08:00:00 13.7 0 Calma 5 Sudoeste 0 -- -- 81
2019-05-23 07:00:00 11.5 4 Oeste 7 Oeste 0 -- -- 86
2019-05-23 06:00:00 11.3 3 Sudoeste 6 Sudoeste 0 -- -- 88
2019-05-23 05:00:00 11.9 2 Oeste 7 Oeste 0 -- -- 88
2019-05-23 04:00:00 12.7 3 Oeste 7 Oeste 0 -- -- 87
2019-05-23 03:00:00 13.7 5 Oeste 9 Oeste 0 -- -- 84
2019-05-23 02:00:00 14.3 6 Sudoeste 9 Sudoeste 0 -- -- 86
2019-05-23 01:00:00 15 5 Oeste 9 Oeste 0 -- -- 85
2019-05-23 00:00:00 15.5 0 Calma 5 Oeste 0 -- -- 84
2019-05-22 23:00:00 16.6 0 Calma 5 Nordeste 0 -- -- 80
2019-05-22 22:00:00 18.4 0 Calma 10 Este 0 -- -- 72
2019-05-22 21:00:00 20.2 4 Este 14 Este 0 -- -- 66
2019-05-22 20:00:00 22 7 Este 14 Este 0 -- -- 62
2019-05-22 19:00:00 23.6 8 Este 19 Este 0 -- -- 58
2019-05-22 18:00:00 24.8 8 Nordeste 22 Este 0 -- -- 54
2019-05-22 17:00:00 25.5 11 Este 22 Este 0 -- -- 53
2019-05-22 16:00:00 25.4 10 Sudeste 22 Este 0 -- -- 49
2019-05-22 15:00:00 25.2 8 Sudeste 20 Este 0 -- -- 47
2019-05-22 14:00:00 24.7 9 Este 20 Este 0 -- -- 49
2019-05-22 13:00:00 23.6 8 Este 14 Sur 0 -- -- 50
2019-05-22 12:00:00 21 8 Nordeste 13 Nordeste 0 -- -- 61
2019-05-22 11:00:00 20 5 Nordeste 10 Este 0 -- -- 61
2019-05-22 10:00:00 17.9 4 Este 9 Sudoeste 0 -- -- 71
2019-05-22 09:00:00 13.6 4 Sudoeste 10 Sudoeste 0 -- -- 89
2019-05-22 08:00:00 12 0 Calma 4 Sudoeste 0 -- -- 92
2019-05-22 07:00:00 10.6 4 Norte 8 Sudoeste 0 -- -- 93
2019-05-22 06:00:00 10.7 2 Sudoeste 10 Oeste 0 -- -- 91
2019-05-22 05:00:00 10.9 4 Oeste 9 Oeste 0 -- -- 93
2019-05-22 04:00:00 11.6 5 Sudoeste 8 Sudoeste 0 -- -- 91
2019-05-22 03:00:00 12.1 6 Sudoeste 10 Oeste 0 -- -- 92
2019-05-22 02:00:00 12.3 4 Oeste 10 Oeste 0 -- -- 93
2019-05-22 01:00:00 12.7 3 Noroeste 10 Oeste 0 -- -- 91
2019-05-22 00:00:00 13.5 5 Oeste 14 Sudoeste 0 -- -- 90